createdAt,value
2018-07-10T00:04:00.500Z,5.4
2018-07-10T00:09:55.505Z,5.24
2018-07-10T00:15:50.524Z,4.39
2018-07-10T00:21:45.523Z,4.48
2018-07-10T00:27:40.519Z,4.41
2018-07-10T00:33:35.547Z,4.26
2018-07-10T00:39:30.515Z,4.48
2018-07-10T00:45:25.549Z,4.54
2018-07-10T00:51:20.578Z,4.76
2018-07-10T00:57:15.577Z,4.7
2018-07-10T01:03:10.555Z,4.92
2018-07-10T01:09:05.555Z,4.91
2018-07-10T01:15:00.603Z,5.59
2018-07-10T01:20:55.537Z,4.36
2018-07-10T01:26:50.560Z,4.11
2018-07-10T01:32:45.562Z,4.4
2018-07-10T01:38:40.589Z,4.97
2018-07-10T01:44:35.584Z,5.24
2018-07-10T01:50:30.580Z,4.8
2018-07-10T01:56:25.722Z,4.8
2018-07-10T02:02:20.631Z,4.62
2018-07-10T02:08:15.587Z,4.31
2018-07-10T02:14:10.756Z,3.62
2018-07-10T02:20:05.590Z,4.44
2018-07-10T02:26:00.590Z,4.78
2018-07-10T02:31:55.591Z,4.96
2018-07-10T02:37:50.617Z,5.68
2018-07-10T02:43:45.651Z,5.41
2018-07-10T02:49:40.616Z,5.27
2018-07-10T02:55:35.605Z,5.57
2018-07-10T03:01:30.611Z,4.79
2018-07-10T03:07:25.672Z,4.46
2018-07-10T03:13:20.631Z,4.31
2018-07-10T03:19:15.610Z,4.3
2018-07-10T03:25:10.690Z,4.61
2018-07-10T03:31:05.612Z,4.39
2018-07-10T03:37:00.625Z,4.38
2018-07-10T03:42:55.632Z,4.24
2018-07-10T03:48:50.623Z,4.13
2018-07-10T03:54:45.635Z,4.83
2018-07-10T04:00:40.694Z,4.78
2018-07-10T04:06:35.647Z,5.18
2018-07-10T04:12:30.662Z,5.39
2018-07-10T04:18:25.663Z,5.16
2018-07-10T04:24:20.669Z,6.34
2018-07-10T04:30:15.673Z,5.88
2018-07-10T04:36:10.677Z,5.5
2018-07-10T04:42:05.677Z,4.86
2018-07-10T04:48:00.685Z,5.28
2018-07-10T04:53:55.750Z,4.78
2018-07-10T04:59:50.685Z,4.9
2018-07-10T05:05:45.773Z,4.62
2018-07-10T05:11:40.700Z,5.31
2018-07-10T05:17:35.731Z,6.07
2018-07-10T05:23:30.788Z,6.82
2018-07-10T05:29:25.748Z,5.75
2018-07-10T05:35:20.721Z,5.67
2018-07-10T05:41:15.707Z,6.81
2018-07-10T05:47:10.767Z,7.62
2018-07-10T05:53:05.705Z,7.77
2018-07-10T05:59:00.711Z,9.24
2018-07-10T06:04:55.720Z,9.46
2018-07-10T06:10:50.733Z,8.63
2018-07-10T06:16:45.718Z,8.15
2018-07-10T06:22:40.736Z,8
2018-07-10T06:28:35.728Z,8.81
2018-07-10T06:34:30.772Z,9.43
2018-07-10T06:40:25.746Z,9.52
2018-07-10T06:46:20.728Z,9.55
2018-07-10T06:52:15.905Z,9.57
2018-07-10T06:58:10.730Z,9.86
2018-07-10T07:04:05.801Z,13.86
2018-07-10T07:10:00.769Z,15.34
2018-07-10T07:15:55.838Z,12.37
2018-07-10T07:21:50.747Z,9.63
2018-07-10T07:27:45.774Z,9.7
2018-07-10T07:33:40.782Z,7.54
2018-07-10T07:39:35.821Z,6.93
2018-07-10T07:45:30.831Z,9.17
2018-07-10T07:51:25.867Z,7.08
2018-07-10T07:57:20.792Z,7.92
2018-07-10T08:03:15.804Z,8.67
2018-07-10T08:09:10.777Z,7.17
2018-07-10T08:15:05.878Z,8.6
2018-07-10T08:21:00.797Z,8.43
2018-07-10T08:26:55.844Z,11.61
2018-07-10T08:32:50.802Z,9.88
2018-07-10T08:38:45.825Z,7.76
2018-07-10T08:44:40.813Z,6.65
2018-07-10T08:50:35.951Z,4.64
2018-07-10T08:56:30.827Z,5.29
2018-07-10T09:02:25.830Z,9.49
2018-07-10T09:08:20.837Z,23.52
2018-07-10T09:14:15.869Z,6.55
2018-07-10T09:20:10.851Z,73.55
2018-07-10T09:26:05.840Z,66.78
2018-07-10T09:32:00.846Z,166.73
2018-07-10T09:37:55.843Z,100.09
2018-07-10T09:43:50.899Z,126.64
2018-07-10T09:49:45.874Z,37.85
2018-07-10T09:55:40.889Z,12.68
2018-07-10T10:01:35.905Z,5.62
2018-07-10T10:07:30.866Z,52.04
2018-07-10T10:13:25.980Z,31.49
2018-07-10T10:19:20.948Z,113.48
2018-07-10T10:25:15.872Z,279.46
2018-07-10T10:31:10.873Z,279.27
2018-07-10T10:37:05.942Z,203.13
2018-07-10T10:43:00.896Z,92.38
2018-07-10T10:48:55.886Z,176.37
2018-07-10T10:54:50.973Z,134.15
2018-07-10T11:00:45.947Z,127.22
2018-07-10T11:06:40.902Z,121.59
2018-07-10T11:12:35.890Z,54.73
2018-07-10T11:18:30.969Z,30.88
2018-07-10T11:24:25.938Z,78.18
2018-07-10T11:30:20.966Z,60.14
2018-07-10T11:36:15.940Z,20.49
2018-07-10T11:42:10.910Z,57.73
2018-07-10T11:48:05.943Z,40.34
2018-07-10T11:54:00.927Z,42.42
2018-07-10T11:59:55.945Z,34.83
2018-07-10T12:05:50.956Z,22.97
2018-07-10T12:11:45.981Z,8.93
2018-07-10T12:17:40.953Z,26.93
2018-07-10T12:23:36.013Z,21.12
2018-07-10T12:29:30.985Z,15.58
2018-07-10T12:35:26.012Z,18.2
2018-07-10T12:41:20.946Z,14.02
2018-07-10T12:47:15.956Z,9.13
2018-07-10T12:53:10.977Z,10.51
2018-07-10T12:59:05.953Z,8.12
2018-07-10T13:05:01.001Z,15.31
2018-07-10T13:10:55.977Z,5.78
2018-07-10T13:16:51.003Z,7.12
2018-07-10T13:22:45.978Z,6.62
2018-07-10T13:28:40.977Z,6.41
2018-07-10T13:34:35.984Z,5.44
2018-07-10T13:40:31.062Z,5.13
2018-07-10T13:46:25.977Z,6.23
2018-07-10T13:52:21.026Z,5.84
2018-07-10T13:58:16.056Z,5.47
2018-07-10T14:04:11.052Z,5.57
2018-07-10T14:10:06.018Z,5.31
2018-07-10T14:16:01.069Z,6.66
2018-07-10T14:21:56.011Z,5.01
2018-07-10T14:27:51.024Z,3.85
2018-07-10T14:33:46.029Z,6.32
2018-07-10T14:39:41.103Z,4.53
2018-07-10T14:45:36.038Z,4.91
2018-07-10T14:51:31.039Z,3.41
2018-07-10T14:57:26.055Z,4.67
2018-07-10T15:03:21.038Z,5.5
2018-07-10T15:09:16.045Z,6.84
2018-07-10T15:15:11.142Z,4.87
2018-07-10T15:21:06.034Z,5.23
2018-07-10T15:27:01.050Z,5.68
2018-07-10T15:32:56.096Z,5.46
2018-07-10T15:38:51.071Z,5.13
2018-07-10T15:44:46.079Z,5.89
2018-07-10T15:50:41.145Z,4.93
2018-07-10T15:56:36.052Z,4.26
2018-07-10T16:02:31.069Z,4.55
2018-07-10T16:08:26.075Z,4.36
2018-07-10T16:14:21.089Z,3.87
2018-07-10T16:20:16.098Z,4.26
2018-07-10T16:26:11.069Z,4.87
2018-07-10T16:32:06.115Z,4.63
2018-07-10T16:38:01.105Z,4.85
2018-07-10T16:43:56.104Z,4.39
2018-07-10T16:49:51.130Z,5.51
2018-07-10T16:55:46.121Z,22.26
2018-07-10T17:01:41.117Z,4.45
2018-07-10T17:07:36.100Z,5.8
2018-07-10T17:13:31.193Z,9.28
2018-07-10T17:19:26.229Z,26.22
2018-07-10T17:25:21.159Z,18.6
2018-07-10T17:31:16.156Z,33.41
2018-07-10T17:37:11.183Z,26.48
2018-07-10T17:43:06.122Z,27.67
2018-07-10T17:49:01.145Z,24.12
2018-07-10T17:54:56.140Z,9.51
2018-07-10T18:00:51.193Z,5.4
2018-07-10T18:06:46.142Z,7.4
2018-07-10T18:12:41.162Z,16.47
2018-07-10T18:18:36.148Z,6.35
2018-07-10T18:24:31.163Z,8.23
2018-07-10T18:30:26.202Z,5.56
2018-07-10T18:36:21.203Z,5.58
2018-07-10T18:42:16.337Z,9.94
2018-07-10T18:48:11.169Z,7.7
2018-07-10T18:54:06.429Z,9.79
2018-07-10T19:00:01.173Z,14.3
2018-07-10T19:05:56.187Z,10.28
2018-07-10T19:11:51.180Z,11.78
2018-07-10T19:17:46.190Z,10.64
2018-07-10T19:23:41.244Z,14.35
2018-07-10T19:29:36.177Z,18.19
2018-07-10T19:35:31.201Z,13.56
2018-07-10T19:41:26.224Z,10.78
2018-07-10T19:47:21.201Z,13.81
2018-07-10T19:53:16.223Z,6.44
2018-07-10T19:59:11.269Z,6.77
2018-07-10T20:05:06.211Z,6.66
2018-07-10T20:11:01.248Z,5.38
2018-07-10T20:16:56.228Z,4.59
2018-07-10T20:22:51.220Z,5.02
2018-07-10T20:28:46.244Z,5.23
2018-07-10T20:34:41.217Z,5.3
2018-07-10T20:40:36.230Z,5.25
2018-07-10T20:46:31.228Z,5.05
2018-07-10T20:52:26.260Z,5.06
2018-07-10T20:58:21.279Z,5.57
2018-07-10T21:04:16.313Z,5.67
2018-07-10T21:10:11.248Z,5.45
2018-07-10T21:16:06.286Z,5.16
2018-07-10T21:22:01.289Z,5.63
2018-07-10T21:27:56.309Z,5.51
2018-07-10T21:33:51.283Z,5.06
2018-07-10T21:39:46.322Z,5.34
2018-07-10T21:45:41.340Z,5.72
2018-07-10T21:51:36.278Z,4.55
2018-07-10T21:57:31.283Z,5.17
2018-07-10T22:03:26.298Z,5.4
2018-07-10T22:09:21.350Z,4.61
2018-07-10T22:15:16.297Z,5.9
2018-07-10T22:21:11.291Z,5.32
2018-07-10T22:27:06.307Z,5.69
2018-07-10T22:33:01.313Z,4.97
2018-07-10T22:38:56.305Z,5.27
2018-07-10T22:44:51.337Z,5.54
2018-07-10T22:50:46.351Z,5.44
2018-07-10T22:56:41.315Z,5.79
2018-07-10T23:02:36.350Z,5.62
2018-07-10T23:08:31.324Z,5.5
2018-07-10T23:14:26.309Z,5.65
2018-07-10T23:20:21.330Z,5.79
2018-07-10T23:26:16.372Z,5.3
2018-07-10T23:32:11.343Z,5.7
2018-07-10T23:38:06.333Z,5.49
2018-07-10T23:44:01.371Z,5.87
2018-07-10T23:49:56.377Z,5.17
2018-07-10T23:55:51.345Z,5.33
